Latest Weather Observations for Sydney Harbour

IDN60801

Issued at 11:03 pm EST Tuesday 19 September 2017 (issued every 30 minutes, with the page automatically refreshed every 10 minutes)

About weather observations | Map of weather stations | Latest weather observations for NSW | Other Formats
Station Details ID: 066196 Name: WEDDING CAKE WEST Lat: -33.84 Lon: 151.26 Height: 6.0 m
Data from the previous 72 hours. | See also: Recent months at Sydney Harbour
Date/Time
EST
Temp
°C
App
Temp
°C
Dew
Point
°C
Rel
Hum
%
Delta-T
°C
Wind Press
QNH
hPa
Press
MSL
hPa
Rain since
9am
mm
Dir  Spd
km/h
Gust
km/h
Spd
kts
Gust
kts
19/11:00pm 15.3 - - - - SW 28 37 15 20 - - -
19/10:30pm 15.4 - - - - SW 26 32 14 17 - - -
19/10:00pm 15.7 - - - - SW 28 33 15 18 - - -
19/09:30pm 16.1 - - - - SW 32 44 17 24 - - -
19/09:00pm 16.4 - - - - WSW 30 39 16 21 - - -
19/08:30pm 16.7 - - - - SW 32 39 17 21 - - -
19/08:00pm 17.0 - - - - SW 35 44 19 24 - - -
19/07:30pm 17.7 - - - - SW 39 52 21 28 - - -
19/07:00pm 17.9 - - - - SW 37 48 20 26 - - -
19/06:30pm 18.3 - - - - SW 43 48 23 26 - - -
19/06:00pm 18.8 - - - - SW 46 59 25 32 - - -
19/05:30pm 19.4 - - - - SW 44 59 24 32 - - -
19/05:22pm 19.3 - - - - SW 39 57 21 31 - - -
19/05:00pm 19.7 - - - - SW 39 50 21 27 - - -
19/04:30pm 20.3 - - - - SW 37 46 20 25 - - -
19/04:00pm 20.4 - - - - SW 33 44 18 24 - - -
19/03:30pm 21.0 - - - - SW 30 37 16 20 - - -
19/03:00pm 21.2 - - - - WSW 33 44 18 24 - - -
19/02:30pm 21.0 - - - - SW 37 46 20 25 - - -
19/02:00pm 21.1 - - - - SW 37 52 20 28 - - -
19/01:30pm 21.5 - - - - WSW 30 43 16 23 - - -
19/01:00pm 21.4 - - - - SW 30 39 16 21 - - -
19/12:30pm 22.0 - - - - WSW 28 39 15 21 - - -
19/12:00pm 21.2 - - - - WSW 22 30 12 16 - - -
19/11:30am 20.5 - - - - SW 22 35 12 19 - - -
19/11:00am 20.0 - - - - WSW 28 35 15 19 - - -
19/10:30am 19.7 - - - - WSW 24 35 13 19 - - -
19/10:00am 19.7 - - - - SW 28 35 15 19 - - -
19/09:30am 19.3 - - - - WSW 26 37 14 20 - - -
19/09:00am 18.9 - - - - WSW 20 32 11 17 - - -
19/08:30am 18.1 - - - - WSW 24 30 13 16 - - -
19/08:00am 17.7 - - - - WSW 26 32 14 17 - - -
19/07:30am 17.8 - - - - WSW 22 30 12 16 - - -
19/07:00am 17.0 - - - - W 24 30 13 16 - - -
19/06:30am 16.5 - - - - WSW 24 35 13 19 - - -
19/06:00am 19.5 - - - - NNW 15 24 8 13 - - -
19/05:30am 20.1 - - - - NNW 17 28 9 15 - - -
19/05:00am 19.8 - - - - N 13 17 7 9 - - -
19/04:30am 19.4 - - - - N 15 20 8 11 - - -
19/04:00am 19.8 - - - - N 19 22 10 12 - - -
19/03:30am 18.8 - - - - NNE 19 20 10 11 - - -
19/03:00am 18.2 - - - - NNE 20 24 11 13 - - -
19/02:30am 20.0 - - - - N 20 26 11 14 - - -
19/02:00am 20.0 - - - - N 15 20 8 11 - - -
19/01:30am 17.8 - - - - NNE 11 13 6 7 - - -
19/01:00am 17.5 - - - - NNE 15 19 8 10 - - -
19/12:30am 17.2 - - - - NNE 17 19 9 10 - - -
19/12:00am 17.3 - - - - N 19 20 10 11 - - -
 
Date/Time
EST
Temp
°C
App
Temp
°C
Dew
Point
°C
Rel
Hum
%
Delta-T
°C
Wind Press
QNH
hPa
Press
MSL
hPa
Rain since
9am
mm
Dir  Spd
km/h
Gust
km/h
Spd
kts
Gust
kts
18/11:30pm 17.5 - - - - N 15 17 8 9 - - -
18/11:00pm 17.7 - - - - N 13 17 7 9 - - -
18/10:30pm 17.8 - - - - N 15 17 8 9 - - -
18/10:00pm 18.3 - - - - N 17 20 9 11 - - -
18/09:30pm 18.9 - - - - NNE 22 28 12 15 - - -
18/09:00pm 19.0 - - - - N 15 19 8 10 - - -
18/08:30pm 19.1 - - - - N 13 20 7 11 - - -
18/08:00pm 19.2 - - - - N 26 33 14 18 - - -
18/07:30pm 19.1 - - - - N 19 26 10 14 - - -
18/07:00pm 18.9 - - - - NNE 32 39 17 21 - - -
18/06:30pm 18.8 - - - - NNE 32 41 17 22 - - -
18/06:00pm 18.9 - - - - NNE 32 39 17 21 - - -
18/05:30pm 18.9 - - - - NNE 32 37 17 20 - - -
18/05:00pm 18.7 - - - - NNE 35 39 19 21 - - -
18/04:30pm 18.7 - - - - NNE 32 39 17 21 - - -
18/04:00pm 18.8 - - - - NNE 30 39 16 21 - - -
18/03:30pm 18.6 - - - - NNE 35 43 19 23 - - -
18/03:00pm 18.4 - - - - NNE 30 37 16 20 - - -
18/02:30pm 18.0 - - - - NNE 33 41 18 22 - - -
18/02:00pm 18.1 - - - - NNE 32 39 17 21 - - -
18/01:30pm 17.8 - - - - NNE 35 41 19 22 - - -
18/01:00pm 17.3 - - - - NNE 30 33 16 18 - - -
18/12:30pm 16.8 - - - - NNE 30 35 16 19 - - -
18/12:00pm 16.5 - - - - NNE 28 32 15 17 - - -
18/11:30am 16.3 - - - - NNE 24 28 13 15 - - -
18/11:00am 16.1 - - - - NNE 26 28 14 15 - - -
18/10:30am 16.2 - - - - NNE 26 28 14 15 - - -
18/10:00am 15.4 - - - - NNE 20 22 11 12 - - -
18/09:30am 15.3 - - - - NNE 7 9 4 5 - - -
18/09:00am 14.6 - - - - NNE 6 7 3 4 - - -
18/08:30am 12.7 - - - - NNE 11 11 6 6 - - -
18/08:00am 13.1 - - - - NNE 9 17 5 9 - - -
18/07:30am 12.1 - - - - NNE 6 9 3 5 - - -
18/07:00am 11.8 - - - - NNE 9 11 5 6 - - -
18/06:30am 11.6 - - - - NNE 2 7 1 4 - - -
18/06:00am 10.8 - - - - NNE 2 9 1 5 - - -
18/05:30am 11.1 - - - - NNE 6 9 3 5 - - -
18/05:00am 11.3 - - - - NNE 6 9 3 5 - - -
18/04:30am 11.8 - - - - NNE 6 7 3 4 - - -
18/04:00am 12.0 - - - - CALM 0 0 0 0 - - -
18/03:30am 12.0 - - - - NNE 6 7 3 4 - - -
18/03:00am 11.6 - - - - NNE 4 9 2 5 - - -
18/02:30am 11.4 - - - - NNE 2 7 1 4 - - -
18/02:00am 11.9 - - - - CALM 0 0 0 0 - - -
18/01:30am 12.0 - - - - NNE 6 9 3 5 - - -
18/01:00am 11.9 - - - - NNE 9 11 5 6 - - -
18/12:30am 12.7 - - - - NNE 7 9 4 5 - - -
18/12:00am 12.8 - - - - NNE 4 7 2 4 - - -
 
Date/Time
EST
Temp
°C
App
Temp
°C
Dew
Point
°C
Rel
Hum
%
Delta-T
°C
Wind Press
QNH
hPa
Press
MSL
hPa
Rain since
9am
mm
Dir  Spd
km/h
Gust
km/h
Spd
kts
Gust
kts
17/11:30pm 12.9 - - - - NNE 11 15 6 8 - - -
17/11:00pm 13.1 - - - - NNE 7 11 4 6 - - -
17/10:30pm 13.5 - - - - NNE 9 13 5 7 - - -
17/10:00pm 14.0 - - - - NNE 11 17 6 9 - - -
17/09:30pm 15.0 - - - - NE 19 24 10 13 - - -
17/09:00pm 15.0 - - - - NE 20 22 11 12 - - -
17/08:30pm 14.9 - - - - NE 17 20 9 11 - - -
17/08:00pm 14.9 - - - - NE 19 24 10 13 - - -
17/07:30pm 14.8 - - - - ENE 19 24 10 13 - - -
17/07:00pm 14.7 - - - - NE 17 20 9 11 - - -
17/06:30pm 14.8 - - - - ENE 17 20 9 11 - - -
17/06:00pm 14.7 - - - - ENE 13 17 7 9 - - -
17/05:30pm 14.7 - - - - E 15 17 8 9 - - -
17/05:00pm 15.3 - - - - E 15 19 8 10 - - -
17/04:30pm 15.6 - - - - E 13 19 7 10 - - -
17/04:00pm 15.5 - - - - ESE 11 15 6 8 - - -
17/03:30pm 14.6 - - - - E 13 17 7 9 - - -
17/03:00pm 15.5 - - - - E 13 19 7 10 - - -
17/02:30pm 15.3 - - - - ESE 17 20 9 11 - - -
17/02:00pm 15.1 - - - - ESE 19 24 10 13 - - -
17/01:30pm 14.9 - - - - SE 22 26 12 14 - - -
17/01:00pm 14.8 - - - - SSE 22 28 12 15 - - -
17/12:30pm 15.0 - - - - SE 19 24 10 13 - - -
17/12:00pm 14.5 - - - - SSE 17 24 9 13 - - -
17/11:30am 14.5 - - - - SSE 20 28 11 15 - - -
17/11:00am 14.5 - - - - SSW 20 33 11 18 - - -
17/10:30am 14.4 - - - - S 20 30 11 16 - - -
17/10:00am 13.8 - - - - W 11 15 6 8 - - -
17/09:30am 13.4 - - - - W 15 19 8 10 - - -
17/09:00am 12.2 - - - - WSW 19 24 10 13 - - -
17/08:30am 11.4 - - - - W 22 28 12 15 - - -
17/08:00am 10.8 - - - - WSW 20 28 11 15 - - -
17/07:30am 10.4 - - - - WSW 20 26 11 14 - - -
17/07:00am 10.1 - - - - WSW 19 24 10 13 - - -
17/06:30am 9.7 - - - - WSW 17 22 9 12 - - -
17/06:00am 9.7 - - - - WSW 17 20 9 11 - - -
17/05:30am 9.7 - - - - W 17 20 9 11 - - -
17/05:00am 10.3 - - - - W 20 24 11 13 - - -
17/04:30am 10.8 - - - - W 20 24 11 13 - - -
17/04:00am 10.7 - - - - W 20 24 11 13 - - -
17/03:30am 10.9 - - - - W 20 24 11 13 - - -
17/03:00am 11.0 - - - - W 22 28 12 15 - - -
17/02:30am 11.1 - - - - W 19 20 10 11 - - -
17/02:00am 11.3 - - - - W 19 22 10 12 - - -
17/01:30am 11.9 - - - - W 20 24 11 13 - - -
17/01:00am 12.5 - - - - W 17 20 9 11 - - -
17/12:30am 13.0 - - - - WSW 17 20 9 11 - - -
17/12:00am 13.8 - - - - SW 20 26 11 14 - - -
 
Date/Time
EST
Temp
°C
App
Temp
°C
Dew
Point
°C
Rel
Hum
%
Delta-T
°C
Wind Press
QNH
hPa
Press
MSL
hPa
Rain since
9am
mm
Dir  Spd
km/h
Gust
km/h
Spd
kts
Gust
kts
16/11:30pm 13.6 - - - - SW 19 22 10 12 - - -

Other Formats:

Comma delimited format used in spreadsheet applications
http://www.bom.gov.au/fwo/IDN60801/IDN60801.95766.axf

JavaScript Object Notation format (JSON) in row-major order
http://www.bom.gov.au/fwo/IDN60801/IDN60801.95766.json